Time;durP1;ratioP1;P1;durP2;ratioP2;P2;SDS_P1;SDS_P2;PMS_P1;PMS_P2;Temp;Humidity;BMP_temperature;BMP_pressure;BME280_temperature;BME280_humidity;BME280_pressure;Samples;Min_cycle;Max_cycle;Signal;HPM_P1;HPM_P2
2023/12/28 00:12:05;;;;;;;25.77;13.07;;;;;;;-147.20;100.00;63046.97;31926399;27;30700;-67
2023/12/28 00:27:05;;;;;;;28.42;13.20;;;;;;;-147.20;100.00;63046.97;31927083;27;20034;-67
2023/12/28 00:42:05;;;;;;;33.15;14.30;;;;;;;-147.20;100.00;63046.97;31925570;27;20102;-66
2023/12/28 00:57:06;;;;;;;30.33;13.68;;;;;;;-147.20;100.00;63046.97;31923222;27;21015;-66
2023/12/28 01:12:06;;;;;;;26.67;13.77;;;;;;;-147.20;100.00;63046.97;31922449;27;20062;-66
2023/12/28 01:27:06;;;;;;;30.58;14.57;;;;;;;-147.20;100.00;63046.97;31919588;27;20039;-66
2023/12/28 01:42:07;;;;;;;33.05;14.80;;;;;;;-147.20;100.00;63046.97;31918453;27;20078;-66
2023/12/28 01:57:08;;;;;;;36.95;15.07;;;;;;;-147.20;100.00;63046.97;31914049;27;34233;-68
2023/12/28 02:12:08;;;;;;;29.20;13.93;;;;;;;-147.20;100.00;63046.97;31916377;27;20547;-65
2023/12/28 02:27:08;;;;;;;28.10;14.43;;;;;;;-147.20;100.00;63046.97;31914591;27;24054;-66
2023/12/28 02:42:09;;;;;;;27.20;12.63;;;;;;;-147.20;100.00;63046.97;31927714;27;33704;-66
2023/12/28 02:57:09;;;;;;;26.08;12.82;;;;;;;-147.20;100.00;63046.97;31935330;27;20502;-66
2023/12/28 03:12:09;;;;;;;27.23;12.65;;;;;;;-147.20;100.00;63046.97;31933192;27;36095;-67
2023/12/28 03:27:10;;;;;;;25.13;12.48;;;;;;;-147.20;100.00;63046.97;31931673;27;34427;-66
2023/12/28 03:42:10;;;;;;;18.75;8.50;;;;;;;-147.20;100.00;63046.97;31929684;27;35758;-67
2023/12/28 03:57:10;;;;;;;12.43;6.72;;;;;;;-147.20;100.00;63046.97;31926945;27;23183;-67
2023/12/28 04:12:11;;;;;;;7.72;4.80;;;;;;;-147.20;100.00;63046.97;31924731;27;20023;-66
2023/12/28 04:27:12;;;;;;;10.32;4.15;;;;;;;-147.20;100.00;63046.97;31924314;27;20384;-66
2023/12/28 04:42:12;;;;;;;7.15;3.95;;;;;;;-147.20;100.00;63046.97;31922990;27;20052;-66
2023/12/28 04:57:13;;;;;;;7.07;3.15;;;;;;;-147.20;100.00;63046.97;31921545;27;20873;-66
2023/12/28 05:12:13;;;;;;;9.60;3.30;;;;;;;-147.20;100.00;63046.97;31920788;27;20102;-66
2023/12/28 05:27:13;;;;;;;6.82;3.83;;;;;;;-147.20;100.00;63046.97;31918179;27;20060;-66
2023/12/28 05:42:13;;;;;;;10.32;5.18;;;;;;;-147.20;100.00;63046.97;31915264;27;20187;-66
2023/12/28 05:57:14;;;;;;;7.43;3.72;;;;;;;-147.20;100.00;63046.97;31912688;27;33882;-66
2023/12/28 06:12:14;;;;;;;5.93;3.10;;;;;;;-147.20;100.00;63046.97;31920488;27;34518;-66
2023/12/28 06:27:14;;;;;;;7.35;2.80;;;;;;;-147.20;100.00;63046.97;31935525;27;20054;-66
2023/12/28 06:42:15;;;;;;;12.75;6.90;;;;;;;-147.20;100.00;63046.97;31932525;27;34581;-66
2023/12/28 06:57:15;;;;;;;8.80;3.55;;;;;;;-147.20;100.00;63046.97;31930997;27;34397;-66
2023/12/28 07:12:15;;;;;;;5.25;2.78;;;;;;;-147.20;100.00;63046.97;31928456;27;36005;-66
2023/12/28 07:27:16;;;;;;;3.22;1.50;;;;;;;-147.20;100.00;63046.97;31927214;27;20231;-66
2023/12/28 07:42:16;;;;;;;10.45;3.85;;;;;;;-147.20;100.00;63046.97;31926793;27;20035;-67
2023/12/28 07:57:16;;;;;;;3.00;1.75;;;;;;;-147.20;100.00;63046.97;31926379;27;20100;-67
2023/12/28 08:12:17;;;;;;;4.47;1.83;;;;;;;-147.20;100.00;63046.97;31924664;27;20051;-67
2023/12/28 08:27:17;;;;;;;6.40;3.10;;;;;;;-147.20;100.00;63046.97;31923078;27;20093;-66
2023/12/28 08:42:17;;;;;;;5.40;2.40;;;;;;;-147.20;100.00;63046.97;31916531;27;35717;-66
2023/12/28 08:57:17;;;;;;;6.65;3.03;;;;;;;-147.20;100.00;63046.97;31918021;27;20034;-66
2023/12/28 09:12:18;;;;;;;5.18;2.28;;;;;;;-147.20;100.00;63046.97;31915628;27;26688;-65
2023/12/28 09:27:18;;;;;;;3.63;1.85;;;;;;;-147.20;100.00;63046.97;31914340;27;24458;-65
2023/12/28 09:42:29;;;;;;;5.35;2.47;;;;;;;-147.20;100.00;63046.97;31911411;27;20201;-66
2023/12/28 09:57:29;;;;;;;5.30;2.35;;;;;;;-147.20;100.00;63046.97;31914948;27;20379;-66
2023/12/28 10:12:32;;;;;;;4.88;2.30;;;;;;;-147.20;100.00;63046.97;31913662;27;20020;-67
2023/12/28 10:27:38;;;;;;;4.63;2.67;;;;;;;-147.20;100.00;63046.97;31913278;27;20036;-66
2023/12/28 10:42:49;;;;;;;7.18;3.08;;;;;;;-147.20;100.00;63046.97;31910973;27;20055;-68
2023/12/28 10:58:09;;;;;;;4.43;2.55;;;;;;;-147.20;100.00;63046.97;31915206;27;20039;-66
2023/12/28 11:13:11;;;;;;;3.38;2.05;;;;;;;-147.20;100.00;63046.97;31931075;27;20559;-66
2023/12/28 11:28:12;;;;;;;4.18;1.98;;;;;;;-147.20;100.00;63046.97;31927434;27;20531;-66
2023/12/28 11:43:18;;;;;;;3.65;2.13;;;;;;;9.98;52.20;100048.78;31893140;27;20517;-67
2023/12/28 11:58:19;;;;;;;7.22;3.28;;;;;;;10.21;52.56;100032.06;31882085;27;20154;-67
2023/12/28 12:13:21;;;;;;;6.15;2.83;;;;;;;9.88;52.60;100034.81;31879736;27;35050;-66
2023/12/28 12:28:21;;;;;;;7.53;3.13;;;;;;;9.56;53.70;100032.03;31876897;27;20390;-66
2023/12/28 12:43:22;;;;;;;8.93;3.60;;;;;;;9.41;54.48;100023.09;31873608;27;20059;-67
2023/12/28 12:58:22;;;;;;;6.88;4.18;;;;;;;9.24;54.74;100016.94;31874766;27;20039;-67
2023/12/28 13:13:23;;;;;;;7.65;3.55;;;;;;;9.07;55.18;100034.69;31872100;27;20035;-66
2023/12/28 13:28:23;;;;;;;8.27;3.47;;;;;;;8.93;55.51;100037.00;31868016;27;41684;-67
2023/12/28 13:43:23;;;;;;;11.13;4.50;;;;;;;8.83;55.82;100043.44;31868711;27;20059;-67
2023/12/28 13:58:24;;;;;;;8.02;3.40;;;;;;;8.70;55.77;100051.88;31867731;27;20116;-65
2023/12/28 14:13:24;;;;;;;13.85;9.07;;;;;;;8.48;56.07;100071.91;31867915;27;42940;-65
2023/12/28 14:28:26;;;;;;;19.30;11.40;;;;;;;8.11;56.20;100090.56;31867521;27;20034;-66
2023/12/28 14:43:26;;;;;;;9.93;4.18;;;;;;;7.59;56.69;100056.91;31886840;27;20051;-66
2023/12/28 14:58:26;;;;;;;10.30;4.93;;;;;;;7.22;57.93;100062.41;31885471;27;45031;-66
2023/12/28 15:13:27;;;;;;;7.75;4.20;;;;;;;6.87;58.34;100054.25;31884283;27;20027;-65
2023/12/28 15:28:27;;;;;;;15.27;7.72;;;;;;;6.50;59.36;100057.00;31883972;27;20036;-66
2023/12/28 15:43:28;;;;;;;18.08;8.35;;;;;;;6.15;59.75;100045.31;31881609;27;43653;-66
2023/12/28 15:58:28;;;;;;;12.75;5.53;;;;;;;5.84;60.76;100048.16;31882583;27;20035;-66
2023/12/28 16:13:28;;;;;;;10.52;4.97;;;;;;;5.50;61.57;100060.03;31879949;27;42564;-66
2023/12/28 16:28:28;;;;;;;13.27;5.20;;;;;;;5.19;61.72;100051.44;31879074;27;20071;-66
2023/12/28 16:43:30;;;;;;;9.93;4.93;;;;;;;4.95;62.56;100047.41;31874919;27;20131;-65
2023/12/28 16:58:30;;;;;;;11.23;4.85;;;;;;;4.74;63.58;100040.41;31872320;27;20043;-65
2023/12/28 17:13:32;;;;;;;12.18;5.18;;;;;;;4.43;63.83;100051.97;31872169;27;20078;-66
2023/12/28 17:28:40;;;;;;;16.30;7.35;;;;;;;4.22;64.29;100058.16;31872432;27;20023;-65
2023/12/28 17:43:48;;;;;;;17.73;7.85;;;;;;;4.03;65.38;100056.25;31870368;27;20087;-65
2023/12/28 17:58:48;;;;;;;11.20;5.13;;;;;;;3.96;65.68;100050.69;31870072;27;20048;-66
2023/12/28 18:13:49;;;;;;;12.45;6.15;;;;;;;3.89;65.90;100052.16;31884697;27;41391;-66
2023/12/28 18:28:49;;;;;;;14.43;8.00;;;;;;;3.73;66.60;100056.13;31890447;27;20019;-65
2023/12/28 18:43:50;;;;;;;20.10;9.98;;;;;;;3.64;67.05;100054.25;31885629;27;20051;-67
2023/12/28 18:58:50;;;;;;;24.80;12.05;;;;;;;3.65;67.79;100045.38;31884077;27;41735;-67
2023/12/28 19:13:50;;;;;;;28.20;13.15;;;;;;;3.69;67.66;100046.81;31883362;27;41721;-67
2023/12/28 19:28:52;;;;;;;21.23;11.70;;;;;;;3.64;68.26;100048.97;31882661;27;20028;-66
2023/12/28 19:43:52;;;;;;;18.50;9.43;;;;;;;3.32;68.43;100047.25;31884181;27;20082;-67
2023/12/28 19:58:52;;;;;;;20.35;8.40;;;;;;;3.27;68.79;100059.94;31882638;27;20066;-67
2023/12/28 20:13:53;;;;;;;17.42;7.53;;;;;;;3.45;69.04;100048.84;31880020;27;38509;-67
2023/12/28 20:28:53;;;;;;;26.02;9.52;;;;;;;3.33;69.37;100053.34;31879286;27;20031;-67
2023/12/28 20:43:54;;;;;;;24.63;11.07;;;;;;;3.70;70.29;100048.47;31875584;27;41088;-66
2023/12/28 20:58:54;;;;;;;23.80;12.88;;;;;;;3.77;70.43;100053.22;31875135;27;20078;-66
2023/12/28 21:14:02;;;;;;;29.05;14.48;;;;;;;3.66;70.19;100051.47;31873355;27;43148;-65
2023/12/28 21:29:03;;;;;;;21.08;9.80;;;;;;;3.71;70.76;100041.41;31873855;27;20067;-65
2023/12/28 21:44:03;;;;;;;15.15;7.97;;;;;;;3.75;70.72;100028.81;31872072;27;20040;-65
2023/12/28 21:59:04;;;;;;;15.13;8.38;;;;;;;3.84;71.06;100030.63;31871018;27;20035;-65
2023/12/28 22:14:04;;;;;;;17.58;10.52;;;;;;;4.01;71.40;100014.22;31869387;27;20020;-65
2023/12/28 22:29:04;;;;;;;15.50;8.98;;;;;;;4.09;71.27;100008.31;31868354;27;41386;-66
2023/12/28 22:44:08;;;;;;;10.35;5.47;;;;;;;4.04;71.58;99999.94;31868545;27;20138;-66
2023/12/28 22:59:08;;;;;;;8.83;5.27;;;;;;;4.22;71.93;99994.88;31882453;27;20077;-67
2023/12/28 23:14:09;;;;;;;11.30;5.82;;;;;;;4.44;72.20;99987.72;31889879;27;25169;-66
2023/12/28 23:29:09;;;;;;;7.88;5.25;;;;;;;4.63;72.29;99971.91;31885952;27;41733;-66
2023/12/28 23:44:09;;;;;;;14.13;6.18;;;;;;;4.75;71.83;99970.81;31885736;27;24488;-68
2023/12/28 23:59:10;;;;;;;14.50;7.22;;;;;;;4.78;72.15;99953.03;31883723;27;41594;-66
